• Join FlightAware (Why Join?)
  • Login
  • US Flag 
07:41AM EST


 

Airport Tracker/Info


-or-


 

Live Flight TrackerFlight Track Log ✈ N129UP ✈ 10-Apr-2013 ✈ KABQ - KPHX

Flight Track Log - Related Links

Times and Time Zones

All times are in EDT time to prevent confusion due to time zone crossing. See the N129UP flight status page for this flight to view local times or setup timezone preferences in your user account.

Time Position Orientation Groundspeed Altitude Reporting Facility
EDT Latitude Longitude Course Direction KTS MPH feet Rate Location/Type
08:45PM 35.0430 -106.6180 264° West 176 203 6,700  Level FlightAware
08:46PM 35.0410 -106.6480 265° West 181 208 8,500 3,180 Climbing FlightAware
08:46PM 35.0400 -106.6660 266° West 204 235 9,100 1,920 Climbing FlightAware
08:46PM 35.0380 -106.6970 266° West 257 296 9,800 1,440 Climbing FlightAware
08:47PM 35.0370 -106.7730 269° West 330 380 10,800 2,520 Climbing FlightAware
08:48PM 35.0380 -106.8510 271° West 345 397 13,400 3,300 Climbing FlightAware
08:48PM 35.0360 -106.9310 268° West 378 435 15,200 2,880 Climbing FlightAware
08:49PM 35.0330 -107.0300 268° West 398 458 17,500 3,000 Climbing FlightAware
08:50PM 35.0290 -107.1240 267° West 415 478 19,500 2,940 Climbing FlightAware
08:50PM 35.0250 -107.2300 267° West 425 489 21,700 3,120 Climbing FlightAware
08:51PM 35.0210 -107.3250 267° West 421 484 24,000 3,000 Climbing FlightAware
08:52PM 35.0130 -107.4210 264° West 433 498 25,700 2,580 Climbing FlightAware
08:53PM 34.9980 -107.5280 260° West 443 510 27,700 2,820 Climbing FlightAware
08:53PM 34.9810 -107.6250 258° West 435 501 29,700 2,700 Climbing FlightAware
08:54PM 34.9590 -107.7340 256° West 435 501 31,600 1,620 Climbing FlightAware
08:55PM 34.9400 -107.8340 257° West 455 524 32,000 240 Climbing FlightAware
08:55PM 34.9220 -107.9440 259° West 474 545 32,000  Level FlightAware
08:56PM 34.9080 -108.0490 261° West 469 540 32,000  Level FlightAware
08:57PM 34.8980 -108.1410 262° West 472 543 32,000  Level FlightAware
08:57PM 34.8840 -108.2760 263° West 472 543 32,000  Level FlightAware
08:58PM 34.8720 -108.3810 262° West 469 540 32,000  Level FlightAware
08:59PM 34.8600 -108.4990 263° West 468 539 32,000  Level FlightAware
09:00PM 34.8490 -108.6030 263° West 469 540 32,000  Level FlightAware
09:00PM 34.8380 -108.6910 261° West 469 540 32,000  Level FlightAware
09:01PM 34.8240 -108.8250 263° West 467 537 32,000  Level FlightAware
09:02PM 34.8130 -108.9290 263° West 467 537 32,000  Level FlightAware
09:02PM 34.8010 -109.0310 262° West 467 537 32,000  Level FlightAware
09:03PM 34.7910 -109.1190 262° West 467 537 32,000  Level FlightAware
09:04PM 34.7810 -109.2080 262° West 467 537 32,000  Level FlightAware
09:04PM 34.7710 -109.2960 262° West 467 537 32,000  Level FlightAware
09:05PM 34.7600 -109.3850 261° West 467 537 32,000  Level FlightAware
09:06PM 34.7480 -109.4960 263° West 467 537 32,000  Level FlightAware
09:07PM 34.7370 -109.5840 261° West 467 537 32,000  Level FlightAware
09:07PM 34.7270 -109.6730 262° West 467 537 32,000  Level FlightAware
09:08PM 34.7170 -109.7610 262° West 467 537 32,000  Level FlightAware
09:09PM 34.7070 -109.8500 262° West 467 537 32,000  Level FlightAware
09:09PM 34.6940 -109.9600 262° West 467 537 32,000  Level FlightAware
09:10PM 34.6840 -110.0490 262° West 467 537 32,000  Level FlightAware
09:11PM 34.6730 -110.1370 261° West 467 537 32,000  Level FlightAware
09:11PM 34.6630 -110.2260 262° West 467 537 32,000 -1,860 Level FlightAware
09:12PM 34.4686 -110.5061 262° West 468 539 29,500 -3,300 Descending Albuquerque Center
09:13PM 34.4178 -110.6408 245° Southwest 449 517 26,300 -1,680 Descending Albuquerque Center
09:19PM 33.9780 -111.2790 245° Southwest 375 432 17,700 -1,320 Descending FlightAware
09:20PM 33.9370 -111.3300 226° Southwest 375 432 17,700  Level FlightAware
09:20PM 33.8960 -111.3810 226° Southwest 375 432 17,700  Level FlightAware
09:21PM 33.8450 -111.4450 226° Southwest 375 432 17,700 -4,440 Level FlightAware
09:22PM 33.7550 -111.5120 212° Southwest 293 337 10,000 -6,240 Descending FlightAware
09:23PM 33.7340 -111.5300 215° Southwest 271 312 9,900 -660 Descending FlightAware
09:23PM 33.6970 -111.5560 210° Southwest 264 304 9,400 -1,020 Descending FlightAware
09:24PM 33.6650 -111.5590 184° South 263 303 8,900 -1,080 Descending FlightAware
09:24PM 33.6480 -111.5610 186° South 261 300 8,700 -960 Descending FlightAware
09:24PM 33.6110 -111.5650 185° South 254 292 8,200 -840 Descending FlightAware
09:25PM 33.5960 -111.5660 183° South 250 288 8,100 -120 Descending FlightAware
09:25PM 33.5560 -111.5710 186° South 242 278 8,100 -120 Level FlightAware
09:26PM 33.5260 -111.5750 186° South 246 283 8,000 -1,200 Descending FlightAware
09:26PM 33.4910 -111.5790 185° South 244 281 7,000 -1,860 Descending FlightAware
09:26PM 33.4660 -111.5860 193° South 239 275 6,300 -1,200 Descending FlightAware
09:27PM 33.4600 -111.5910 215° Southwest 237 273 6,300 -360 Level FlightAware
09:27PM 33.4250 -111.6390 229° Southwest 233 268 6,000 -300 Descending FlightAware
09:28PM 33.4180 -111.6540 241° Southwest 232 267 6,000 -960 Level FlightAware
09:28PM 33.4050 -111.6910 247° West 232 267 5,300 -1,200 Descending FlightAware
09:28PM 33.4080 -111.7100 281° West 223 257 5,100 -300 Descending FlightAware
09:29PM 33.4210 -111.7340 303° West 201 231 5,100 -120 Level FlightAware
09:29PM 33.4310 -111.7600 295° West 193 222 5,000 -600 Descending FlightAware
09:30PM 33.4280 -111.7960 264° West 198 228 4,500 -1,200 Descending FlightAware
09:30PM 33.4280 -111.8230 270° West 193 222 3,900 -1,140 Descending FlightAware
09:31PM 33.4290 -111.8530 272° West 166 191 3,500 -840 Descending FlightAware
09:31PM 33.4290 -111.8660 270° West 162 186 3,300 -780 Descending FlightAware
09:32PM 33.4290 -111.9000 270° West 159 183 2,800 -780 Descending FlightAware
09:32PM 33.4290 -111.9260 270° West 126 145 2,400 -780 Descending FlightAware
09:33PM 33.4290 -111.9410 270° West 117 135 2,100 -660 Descending FlightAware
09:33PM 33.4290 -111.9630 270° West 117 135 1,800 -600 Descending FlightAware
09:33PM 33.4290 -111.9780 270° West 122 140 1,600 -300 Descending FlightAware
09:34PM 33.4290 -111.9990 270° West 120 138 1,500 -180 Descending FlightAware